ETH882 FSIA-HAAB
Flight info
| Callsign | ETH882 |
|---|---|
| Flight time | 3h 10m |
| Altitude | 38000 |
| Route | UNBED1A UNBED DCT MOGUDIMKIT IMKIT2A |
| Aircraft | B737/M-SDE2E3FGHIRWXY/LB1 |
Departure
| Time | 2026-04-24 21:45 |
|---|---|
| Airport | Seychelles International Airport (FSIA) |
Arrival
| Time | 2026-04-25 00:55 |
|---|---|
| Airport | Addis Ababa Bole International Airport (HAAB) |
| Time | Latitude | Longitude | Altitude | Speed | Heading |
|---|---|---|---|---|---|
| 2026-04-24 21:10 | -4.66990 | 55.51095 | 18 ft | 0 kts | 214° |
| 2026-04-24 21:34 | -4.66979 | 55.51103 | 18 ft | 2 kts | 214° |
| 2026-04-24 21:34 | -4.66966 | 55.51112 | 18 ft | 2 kts | 214° |
| 2026-04-24 21:34 | -4.66952 | 55.51121 | 18 ft | 2 kts | 214° |
| 2026-04-24 21:34 | -4.66939 | 55.51130 | 18 ft | 2 kts | 214° |
| 2026-04-24 21:35 | -4.66926 | 55.51140 | 18 ft | 2 kts | 214° |
| 2026-04-24 21:35 | -4.66916 | 55.51146 | 18 ft | 0 kts | 214° |
| 2026-04-24 21:38 | -4.66919 | 55.51145 | 18 ft | 1 kts | 199° |
| 2026-04-24 21:38 | -4.66924 | 55.51145 | 18 ft | 1 kts | 172° |
| 2026-04-24 21:38 | -4.66956 | 55.51173 | 18 ft | 11 kts | 130° |
| 2026-04-24 21:39 | -4.66998 | 55.51219 | 18 ft | 6 kts | 128° |
| 2026-04-24 21:39 | -4.67017 | 55.51259 | 18 ft | 10 kts | 98° |
| 2026-04-24 21:39 | -4.66962 | 55.51321 | 18 ft | 13 kts | 33° |
| 2026-04-24 21:39 | -4.66908 | 55.51370 | 18 ft | 8 kts | 69° |
| 2026-04-24 21:40 | -4.66928 | 55.51434 | 18 ft | 13 kts | 126° |
| 2026-04-24 21:40 | -4.66992 | 55.51525 | 18 ft | 19 kts | 124° |
| 2026-04-24 21:40 | -4.67076 | 55.51646 | 18 ft | 23 kts | 124° |
| 2026-04-24 21:40 | -4.67175 | 55.51789 | 18 ft | 26 kts | 124° |
| 2026-04-24 21:41 | -4.67272 | 55.51928 | 18 ft | 22 kts | 119° |
| 2026-04-24 21:41 | -4.67350 | 55.52045 | 18 ft | 21 kts | 126° |
| 2026-04-24 21:41 | -4.67446 | 55.52180 | 18 ft | 25 kts | 125° |
| 2026-04-24 21:41 | -4.67543 | 55.52320 | 18 ft | 23 kts | 124° |
| 2026-04-24 21:42 | -4.67631 | 55.52449 | 18 ft | 24 kts | 125° |
| 2026-04-24 21:42 | -4.67732 | 55.52595 | 18 ft | 26 kts | 124° |
| 2026-04-24 21:42 | -4.67825 | 55.52730 | 18 ft | 21 kts | 124° |
| 2026-04-24 21:42 | -4.67900 | 55.52837 | 18 ft | 16 kts | 125° |
| 2026-04-24 21:43 | -4.67955 | 55.52916 | 18 ft | 12 kts | 125° |
| 2026-04-24 21:43 | -4.68018 | 55.53007 | 18 ft | 20 kts | 125° |
| 2026-04-24 21:43 | -4.68107 | 55.53134 | 18 ft | 21 kts | 135° |
| 2026-04-24 21:43 | -4.68223 | 55.53164 | 18 ft | 15 kts | 169° |
| 2026-04-24 21:44 | -4.68270 | 55.53231 | 18 ft | 14 kts | 53° |
| 2026-04-24 21:44 | -4.68174 | 55.53233 | 18 ft | 18 kts | 300° |
| 2026-04-24 21:44 | -4.68071 | 55.53084 | 18 ft | 43 kts | 304° |
| 2026-04-24 21:44 | -4.67745 | 55.52609 | 18 ft | 121 kts | 305° |
| 2026-04-24 21:45 | -4.67131 | 55.51725 | 114 ft | 176 kts | 305° |
| 2026-04-24 21:45 | -4.66386 | 55.50627 | 533 ft | 209 kts | 304° |
| 2026-04-24 21:45 | -4.65527 | 55.49328 | 994 ft | 240 kts | 303° |
| 2026-04-24 21:45 | -4.64513 | 55.47910 | 1542 ft | 257 kts | 314° |
| 2026-04-24 21:46 | -4.62994 | 55.47090 | 2096 ft | 250 kts | 348° |
| 2026-04-24 21:46 | -4.61287 | 55.47158 | 2853 ft | 245 kts | 6° |
| 2026-04-24 21:46 | -4.59544 | 55.47342 | 3337 ft | 254 kts | 5° |
| 2026-04-24 21:46 | -4.57783 | 55.47509 | 3906 ft | 256 kts | 5° |
| 2026-04-24 21:47 | -4.56003 | 55.47536 | 4531 ft | 258 kts | 356° |
| 2026-04-24 21:47 | -4.54824 | 55.47396 | 4944 ft | 257 kts | 346° |
| 2026-04-24 21:47 | -4.52820 | 55.46188 | 5764 ft | 256 kts | 310° |
| 2026-04-24 21:47 | -4.51881 | 55.44670 | 6373 ft | 257 kts | 294° |
| 2026-04-24 21:48 | -4.51201 | 55.43020 | 7057 ft | 255 kts | 290° |
| 2026-04-24 21:48 | -4.50584 | 55.41320 | 7817 ft | 264 kts | 289° |
| 2026-04-24 21:48 | -4.49948 | 55.39576 | 8566 ft | 275 kts | 290° |
| 2026-04-24 21:48 | -4.49266 | 55.37742 | 9329 ft | 282 kts | 290° |
| 2026-04-24 21:49 | -4.48575 | 55.35913 | 10073 ft | 285 kts | 291° |
| 2026-04-24 21:49 | -4.47857 | 55.34040 | 10826 ft | 293 kts | 291° |
| 2026-04-24 21:49 | -4.47105 | 55.32096 | 11584 ft | 303 kts | 291° |
| 2026-04-24 21:49 | -4.46328 | 55.30100 | 12337 ft | 312 kts | 291° |
| 2026-04-24 21:50 | -4.45522 | 55.28043 | 13093 ft | 320 kts | 292° |
| 2026-04-24 21:50 | -4.44694 | 55.25936 | 13848 ft | 328 kts | 292° |
| 2026-04-24 21:50 | -4.43847 | 55.23787 | 14602 ft | 334 kts | 292° |
| 2026-04-24 21:50 | -4.42985 | 55.21605 | 15355 ft | 340 kts | 292° |
| 2026-04-24 21:51 | -4.42102 | 55.19382 | 16103 ft | 345 kts | 291° |
| 2026-04-24 21:51 | -4.41229 | 55.17157 | 16847 ft | 350 kts | 292° |
| 2026-04-24 21:51 | -4.40316 | 55.14857 | 17609 ft | 353 kts | 292° |
| 2026-04-24 21:51 | -4.39366 | 55.12578 | 18361 ft | 355 kts | 296° |
| 2026-04-24 21:52 | -4.38151 | 55.10426 | 19112 ft | 356 kts | 305° |
| 2026-04-24 21:52 | -4.36684 | 55.08423 | 19865 ft | 357 kts | 308° |
| 2026-04-24 21:52 | -4.35145 | 55.06468 | 20617 ft | 357 kts | 310° |
| 2026-04-24 21:52 | -4.33595 | 55.04533 | 21187 ft | 364 kts | 310° |
| 2026-04-24 21:53 | -4.31982 | 55.02519 | 21694 ft | 371 kts | 310° |
| 2026-04-24 21:53 | -4.30368 | 55.00505 | 22192 ft | 377 kts | 310° |
| 2026-04-24 21:53 | -4.28709 | 54.98433 | 22695 ft | 382 kts | 310° |
| 2026-04-24 21:53 | -4.27033 | 54.96341 | 23197 ft | 387 kts | 310° |
| 2026-04-24 21:54 | -4.25339 | 54.94226 | 23698 ft | 391 kts | 310° |
| 2026-04-24 21:54 | -4.23624 | 54.92083 | 24201 ft | 395 kts | 310° |
| 2026-04-24 21:54 | -4.21916 | 54.89951 | 24697 ft | 398 kts | 311° |
| 2026-04-24 21:54 | -4.20154 | 54.87754 | 25188 ft | 402 kts | 310° |
| 2026-04-24 21:55 | -4.18389 | 54.85550 | 25531 ft | 411 kts | 310° |
| 2026-04-24 21:55 | -4.16605 | 54.83319 | 25781 ft | 421 kts | 310° |
| 2026-04-24 21:55 | -4.14736 | 54.80982 | 26037 ft | 430 kts | 310° |
| 2026-04-24 21:55 | -4.12843 | 54.78616 | 26290 ft | 437 kts | 310° |
| 2026-04-24 21:56 | -4.10929 | 54.76224 | 26541 ft | 444 kts | 311° |
| 2026-04-24 21:56 | -4.09000 | 54.73814 | 26790 ft | 450 kts | 311° |
| 2026-04-24 21:56 | -4.07053 | 54.71381 | 27039 ft | 455 kts | 311° |
| 2026-04-24 21:56 | -4.05041 | 54.68867 | 27293 ft | 459 kts | 311° |
| 2026-04-24 21:57 | -4.03036 | 54.66364 | 27544 ft | 462 kts | 311° |
| 2026-04-24 21:57 | -4.01024 | 54.63851 | 27795 ft | 465 kts | 311° |
| 2026-04-24 21:57 | -3.98993 | 54.61316 | 28047 ft | 467 kts | 311° |
| 2026-04-24 21:57 | -3.96952 | 54.58767 | 28298 ft | 468 kts | 311° |
| 2026-04-24 21:58 | -3.94910 | 54.56219 | 28549 ft | 469 kts | 311° |
| 2026-04-24 21:58 | -3.92868 | 54.53669 | 28800 ft | 470 kts | 311° |
| 2026-04-24 21:58 | -3.90815 | 54.51107 | 29051 ft | 470 kts | 311° |
| 2026-04-24 21:58 | -3.88774 | 54.48561 | 29302 ft | 470 kts | 311° |
| 2026-04-24 21:59 | -3.86723 | 54.46001 | 29553 ft | 469 kts | 311° |
| 2026-04-24 21:59 | -3.84708 | 54.43487 | 29800 ft | 469 kts | 311° |
| 2026-04-24 21:59 | -3.82658 | 54.40930 | 30052 ft | 468 kts | 311° |
| 2026-04-24 21:59 | -3.80619 | 54.38386 | 30303 ft | 467 kts | 311° |
| 2026-04-24 22:00 | -3.78590 | 54.35856 | 30553 ft | 466 kts | 310° |
| 2026-04-24 22:00 | -3.76562 | 54.33325 | 30803 ft | 465 kts | 310° |
| 2026-04-24 22:00 | -3.74531 | 54.30793 | 30964 ft | 465 kts | 310° |
| 2026-04-24 22:00 | -3.72539 | 54.28308 | 31088 ft | 464 kts | 310° |
| 2026-04-24 22:01 | -3.70512 | 54.25781 | 31214 ft | 463 kts | 310° |
| 2026-04-24 22:01 | -3.68504 | 54.23276 | 31338 ft | 462 kts | 309° |
| 2026-04-24 22:01 | -3.66487 | 54.20761 | 31464 ft | 461 kts | 309° |
| 2026-04-24 22:01 | -3.64476 | 54.18255 | 31589 ft | 460 kts | 309° |
| 2026-04-24 22:02 | -3.62473 | 54.15758 | 31715 ft | 459 kts | 309° |
| 2026-04-24 22:02 | -3.60491 | 54.13287 | 31839 ft | 459 kts | 309° |
| 2026-04-24 22:02 | -3.58499 | 54.10803 | 31963 ft | 458 kts | 309° |
| 2026-04-24 22:02 | -3.56500 | 54.08312 | 32089 ft | 458 kts | 309° |
| 2026-04-24 22:03 | -3.54508 | 54.05829 | 32213 ft | 458 kts | 309° |
| 2026-04-24 22:03 | -3.52502 | 54.03329 | 32339 ft | 458 kts | 309° |
| 2026-04-24 22:03 | -3.50500 | 54.00834 | 32464 ft | 458 kts | 309° |
| 2026-04-24 22:03 | -3.48526 | 53.98375 | 32588 ft | 458 kts | 309° |
| 2026-04-24 22:04 | -3.46506 | 53.95858 | 32715 ft | 458 kts | 309° |
| 2026-04-24 22:04 | -3.44503 | 53.93362 | 32840 ft | 458 kts | 309° |
| 2026-04-24 22:04 | -3.42530 | 53.90905 | 32964 ft | 458 kts | 309° |
| 2026-04-24 22:04 | -3.40532 | 53.88416 | 33088 ft | 458 kts | 309° |
| 2026-04-24 22:05 | -3.38539 | 53.85933 | 33214 ft | 458 kts | 309° |
| 2026-04-24 22:05 | -3.36531 | 53.83433 | 33339 ft | 458 kts | 309° |
| 2026-04-24 22:05 | -3.34536 | 53.80949 | 33464 ft | 458 kts | 309° |
| 2026-04-24 22:05 | -3.32536 | 53.78458 | 33589 ft | 458 kts | 309° |
| 2026-04-24 22:06 | -3.30538 | 53.75969 | 33714 ft | 459 kts | 309° |
| 2026-04-24 22:06 | -3.26545 | 53.70999 | 33964 ft | 459 kts | 309° |
| 2026-04-24 22:06 | -3.24544 | 53.68507 | 34090 ft | 459 kts | 310° |
| 2026-04-24 22:07 | -3.22567 | 53.66046 | 34213 ft | 459 kts | 310° |
| 2026-04-24 22:07 | -3.19218 | 53.61877 | 34423 ft | 459 kts | 310° |
| 2026-04-24 22:07 | -3.16564 | 53.58575 | 34588 ft | 459 kts | 310° |
| 2026-04-24 22:08 | -3.15222 | 53.56905 | 34672 ft | 459 kts | 310° |
| 2026-04-24 22:08 | -3.13210 | 53.54401 | 34797 ft | 459 kts | 310° |
| 2026-04-24 22:08 | -3.11229 | 53.51935 | 34922 ft | 459 kts | 310° |
| 2026-04-24 22:08 | -3.09223 | 53.49440 | 35046 ft | 459 kts | 310° |
| 2026-04-24 22:09 | -3.07223 | 53.46951 | 35172 ft | 459 kts | 310° |
| 2026-04-24 22:09 | -3.05213 | 53.44450 | 35297 ft | 459 kts | 310° |
| 2026-04-24 22:09 | -3.03207 | 53.41955 | 35422 ft | 460 kts | 310° |
| 2026-04-24 22:09 | -3.01207 | 53.39466 | 35547 ft | 460 kts | 310° |
| 2026-04-24 22:10 | -2.99197 | 53.36967 | 35672 ft | 460 kts | 310° |
| 2026-04-24 22:10 | -2.97209 | 53.34493 | 35797 ft | 460 kts | 310° |
| 2026-04-24 22:10 | -2.95204 | 53.32000 | 35921 ft | 460 kts | 310° |
| 2026-04-24 22:10 | -2.93202 | 53.29510 | 36046 ft | 460 kts | 310° |
| 2026-04-24 22:11 | -2.91201 | 53.27022 | 36171 ft | 460 kts | 310° |
| 2026-04-24 22:11 | -2.89192 | 53.24523 | 36296 ft | 460 kts | 310° |
| 2026-04-24 22:11 | -2.87181 | 53.22023 | 36422 ft | 460 kts | 310° |
| 2026-04-24 22:11 | -2.85173 | 53.19526 | 36546 ft | 460 kts | 310° |
| 2026-04-24 22:12 | -2.83166 | 53.17030 | 36671 ft | 460 kts | 310° |
| 2026-04-24 22:12 | -2.81159 | 53.14536 | 36796 ft | 460 kts | 310° |
| 2026-04-24 22:12 | -2.79146 | 53.12033 | 36921 ft | 461 kts | 310° |
| 2026-04-24 22:12 | -2.77148 | 53.09549 | 37046 ft | 461 kts | 310° |
| 2026-04-24 22:13 | -2.75131 | 53.07040 | 37171 ft | 461 kts | 310° |
| 2026-04-24 22:13 | -2.73142 | 53.04568 | 37295 ft | 461 kts | 310° |
| 2026-04-24 22:13 | -2.71102 | 53.02031 | 37422 ft | 461 kts | 310° |
| 2026-04-24 22:13 | -2.69121 | 52.99570 | 37545 ft | 461 kts | 310° |
| 2026-04-24 22:14 | -2.67108 | 52.97068 | 37670 ft | 461 kts | 310° |
| 2026-04-24 22:14 | -2.65104 | 52.94578 | 37790 ft | 461 kts | 310° |
| 2026-04-24 22:14 | -2.63086 | 52.92070 | 37808 ft | 462 kts | 310° |
| 2026-04-24 22:15 | -2.59058 | 52.87066 | 37816 ft | 461 kts | 310° |
| 2026-04-24 22:15 | -2.55353 | 52.81828 | 37817 ft | 462 kts | 304° |
| 2026-04-24 22:16 | -2.52013 | 52.76321 | 37817 ft | 463 kts | 303° |
| 2026-04-24 22:16 | -2.48690 | 52.70815 | 37817 ft | 463 kts | 303° |
| 2026-04-24 22:17 | -2.45343 | 52.65303 | 37817 ft | 463 kts | 303° |
| 2026-04-24 22:17 | -2.42015 | 52.59839 | 37817 ft | 463 kts | 303° |
| 2026-04-24 22:18 | -2.38656 | 52.54335 | 37817 ft | 462 kts | 303° |
| 2026-04-24 22:18 | -2.35306 | 52.48852 | 37817 ft | 462 kts | 303° |
| 2026-04-24 22:19 | -2.31943 | 52.43351 | 37817 ft | 462 kts | 303° |
| 2026-04-24 22:19 | -2.28588 | 52.37868 | 37817 ft | 462 kts | 303° |
| 2026-04-24 22:20 | -2.25218 | 52.32362 | 37817 ft | 462 kts | 303° |
| 2026-04-24 22:20 | -2.21861 | 52.26879 | 37817 ft | 462 kts | 303° |
| 2026-04-24 22:21 | -2.18520 | 52.21424 | 37817 ft | 462 kts | 303° |
| 2026-04-24 22:21 | -2.15159 | 52.15937 | 37817 ft | 462 kts | 303° |
| 2026-04-24 22:22 | -2.11796 | 52.10446 | 37817 ft | 462 kts | 303° |
| 2026-04-24 22:22 | -2.08447 | 52.04981 | 37817 ft | 462 kts | 303° |
| 2026-04-24 22:23 | -2.05088 | 51.99499 | 37817 ft | 462 kts | 303° |
| 2026-04-24 22:23 | -2.01728 | 51.94015 | 37817 ft | 462 kts | 303° |
| 2026-04-24 22:24 | -1.98355 | 51.88513 | 37817 ft | 462 kts | 303° |
| 2026-04-24 22:24 | -1.94985 | 51.83005 | 37805 ft | 467 kts | 304° |
| 2026-04-24 22:25 | -1.91587 | 51.77465 | 37798 ft | 472 kts | 304° |
| 2026-04-24 22:25 | -1.88143 | 51.71849 | 37797 ft | 471 kts | 304° |
| 2026-04-24 22:26 | -1.84732 | 51.66287 | 37797 ft | 471 kts | 304° |
| 2026-04-24 22:26 | -1.81308 | 51.60704 | 37797 ft | 471 kts | 304° |
| 2026-04-24 22:27 | -1.77883 | 51.55119 | 37797 ft | 471 kts | 304° |
| 2026-04-24 22:27 | -1.74464 | 51.49543 | 37797 ft | 471 kts | 304° |
| 2026-04-24 22:28 | -1.71033 | 51.43950 | 37797 ft | 471 kts | 304° |
| 2026-04-24 22:28 | -1.67606 | 51.38363 | 37797 ft | 471 kts | 304° |
| 2026-04-24 22:29 | -1.62471 | 51.29992 | 37797 ft | 471 kts | 304° |
| 2026-04-24 22:29 | -1.59048 | 51.24412 | 37797 ft | 471 kts | 304° |
| 2026-04-24 22:30 | -1.55639 | 51.18856 | 37797 ft | 471 kts | 304° |
| 2026-04-24 22:30 | -1.52218 | 51.13280 | 37797 ft | 471 kts | 304° |
| 2026-04-24 22:31 | -1.48784 | 51.07684 | 37797 ft | 471 kts | 304° |
| 2026-04-24 22:31 | -1.45362 | 51.02108 | 37797 ft | 471 kts | 304° |
| 2026-04-24 22:32 | -1.41942 | 50.96535 | 37797 ft | 471 kts | 304° |
| 2026-04-24 22:32 | -1.38524 | 50.90966 | 37797 ft | 471 kts | 304° |
| 2026-04-24 22:33 | -1.35094 | 50.85379 | 37797 ft | 471 kts | 304° |
| 2026-04-24 22:33 | -1.31668 | 50.79796 | 37797 ft | 471 kts | 304° |
| 2026-04-24 22:34 | -1.28247 | 50.74225 | 37797 ft | 471 kts | 304° |
| 2026-04-24 22:34 | -1.24820 | 50.68642 | 37797 ft | 471 kts | 304° |
| 2026-04-24 22:35 | -1.21399 | 50.63070 | 37797 ft | 471 kts | 304° |
| 2026-04-24 22:35 | -1.17963 | 50.57474 | 37798 ft | 472 kts | 304° |
| 2026-04-24 22:36 | -1.14545 | 50.51908 | 37797 ft | 471 kts | 304° |
| 2026-04-24 22:36 | -1.11101 | 50.46299 | 37797 ft | 471 kts | 304° |
| 2026-04-24 22:37 | -1.07693 | 50.40750 | 37797 ft | 471 kts | 304° |
| 2026-04-24 22:37 | -1.04257 | 50.35154 | 37798 ft | 473 kts | 304° |
| 2026-04-24 22:38 | -1.00800 | 50.29525 | 37798 ft | 475 kts | 304° |
| 2026-04-24 22:38 | -0.97350 | 50.23908 | 37798 ft | 474 kts | 304° |
| 2026-04-24 22:39 | -0.93905 | 50.18299 | 37798 ft | 473 kts | 304° |
| 2026-04-24 22:39 | -0.90453 | 50.12679 | 37799 ft | 475 kts | 304° |
| 2026-04-24 22:40 | -0.87011 | 50.07076 | 37800 ft | 476 kts | 304° |
| 2026-04-24 22:40 | -0.83533 | 50.01414 | 37800 ft | 477 kts | 304° |
| 2026-04-24 22:41 | -0.80066 | 49.95770 | 37800 ft | 477 kts | 304° |
| 2026-04-24 22:41 | -0.77159 | 49.91040 | 37800 ft | 477 kts | 304° |
| 2026-04-24 22:42 | -0.73108 | 49.84445 | 37801 ft | 479 kts | 304° |
| 2026-04-24 22:42 | -0.69635 | 49.78793 | 37801 ft | 479 kts | 304° |
| 2026-04-24 22:43 | -0.66149 | 49.73118 | 37803 ft | 479 kts | 304° |
| 2026-04-24 22:43 | -0.62664 | 49.67447 | 37806 ft | 478 kts | 303° |
| 2026-04-24 22:44 | -0.59194 | 49.61799 | 37808 ft | 478 kts | 303° |
| 2026-04-24 22:44 | -0.55711 | 49.56131 | 37808 ft | 478 kts | 303° |
| 2026-04-24 22:45 | -0.52231 | 49.50468 | 37809 ft | 478 kts | 303° |
| 2026-04-24 22:45 | -0.48758 | 49.44817 | 37810 ft | 476 kts | 303° |
| 2026-04-24 22:46 | -0.45302 | 49.39192 | 37811 ft | 475 kts | 303° |
| 2026-04-24 22:46 | -0.41866 | 49.33601 | 37810 ft | 475 kts | 303° |
| 2026-04-24 22:47 | -0.38404 | 49.27968 | 37811 ft | 476 kts | 303° |
| 2026-04-24 22:47 | -0.35519 | 49.23273 | 37811 ft | 476 kts | 303° |
| 2026-04-24 22:48 | -0.31489 | 49.16716 | 37811 ft | 473 kts | 303° |
| 2026-04-24 22:48 | -0.28629 | 49.12061 | 37812 ft | 473 kts | 303° |
| 2026-04-24 22:49 | -0.25185 | 49.06458 | 37811 ft | 474 kts | 303° |
| 2026-04-24 22:49 | -0.21731 | 49.00839 | 37812 ft | 474 kts | 303° |
| 2026-04-24 22:50 | -0.18289 | 48.95237 | 37812 ft | 472 kts | 303° |
| 2026-04-24 22:50 | -0.14830 | 48.89618 | 37812 ft | 479 kts | 303° |
| 2026-04-24 22:51 | -0.11346 | 48.83940 | 37815 ft | 481 kts | 303° |
| 2026-04-24 22:51 | -0.07850 | 48.78253 | 37812 ft | 473 kts | 303° |
| 2026-04-24 22:52 | -0.04422 | 48.72695 | 37806 ft | 475 kts | 303° |
| 2026-04-24 22:52 | -0.00916 | 48.67018 | 37815 ft | 484 kts | 301° |
| 2026-04-24 22:53 | 0.02566 | 48.61322 | 37816 ft | 472 kts | 302° |
| 2026-04-24 22:53 | 0.05956 | 48.55849 | 37815 ft | 456 kts | 300° |
| 2026-04-24 22:54 | 0.09242 | 48.50466 | 37814 ft | 455 kts | 301° |
| 2026-04-24 22:54 | 0.12576 | 48.45009 | 37817 ft | 462 kts | 303° |
| 2026-04-24 22:55 | 0.15933 | 48.39551 | 37817 ft | 463 kts | 303° |
| 2026-04-24 22:55 | 0.19288 | 48.34099 | 37816 ft | 460 kts | 303° |
| 2026-04-24 22:56 | 0.22649 | 48.28630 | 37817 ft | 463 kts | 303° |
| 2026-04-24 22:56 | 0.26026 | 48.23135 | 37816 ft | 462 kts | 303° |
| 2026-04-24 22:57 | 0.29396 | 48.17652 | 37817 ft | 462 kts | 303° |
| 2026-04-24 22:57 | 0.32740 | 48.12211 | 37816 ft | 462 kts | 303° |
| 2026-04-24 22:58 | 0.36109 | 48.06728 | 37816 ft | 462 kts | 303° |
| 2026-04-24 22:58 | 0.39471 | 48.01258 | 37817 ft | 462 kts | 303° |
| 2026-04-24 22:59 | 0.42844 | 47.95768 | 37817 ft | 462 kts | 303° |
| 2026-04-24 23:00 | 0.47894 | 47.87551 | 37816 ft | 462 kts | 303° |
| 2026-04-24 23:00 | 0.51263 | 47.82068 | 37817 ft | 462 kts | 303° |
| 2026-04-24 23:01 | 0.54608 | 47.76624 | 37817 ft | 462 kts | 303° |
| 2026-04-24 23:01 | 0.57980 | 47.71137 | 37817 ft | 462 kts | 303° |
| 2026-04-24 23:02 | 0.61350 | 47.65652 | 37817 ft | 462 kts | 303° |
| 2026-04-24 23:02 | 0.64712 | 47.60181 | 37817 ft | 462 kts | 303° |
| 2026-04-24 23:03 | 0.68080 | 47.54699 | 37816 ft | 462 kts | 303° |
| 2026-04-24 23:03 | 0.71427 | 47.49251 | 37817 ft | 462 kts | 303° |
| 2026-04-24 23:04 | 0.74802 | 47.43759 | 37817 ft | 462 kts | 303° |
| 2026-04-24 23:04 | 0.78168 | 47.38279 | 37817 ft | 462 kts | 303° |
| 2026-04-24 23:05 | 0.81530 | 47.32807 | 37817 ft | 462 kts | 303° |
| 2026-04-24 23:05 | 0.84900 | 47.27321 | 37817 ft | 462 kts | 303° |
| 2026-04-24 23:06 | 0.88267 | 47.21841 | 37817 ft | 462 kts | 303° |
| 2026-04-24 23:06 | 0.91631 | 47.16364 | 37817 ft | 462 kts | 303° |
| 2026-04-24 23:07 | 0.94991 | 47.10893 | 37817 ft | 462 kts | 303° |
| 2026-04-24 23:07 | 0.98353 | 47.05420 | 37818 ft | 462 kts | 303° |
| 2026-04-24 23:08 | 1.01722 | 46.99935 | 37817 ft | 462 kts | 303° |
| 2026-04-24 23:08 | 1.05086 | 46.94457 | 37817 ft | 462 kts | 303° |
| 2026-04-24 23:09 | 1.08456 | 46.88970 | 37817 ft | 462 kts | 303° |
| 2026-04-24 23:09 | 1.11820 | 46.83491 | 37817 ft | 462 kts | 303° |
| 2026-04-24 23:10 | 1.15166 | 46.78042 | 37817 ft | 462 kts | 303° |
| 2026-04-24 23:10 | 1.18532 | 46.72560 | 37817 ft | 462 kts | 303° |
| 2026-04-24 23:11 | 1.21902 | 46.67072 | 37817 ft | 462 kts | 303° |
| 2026-04-24 23:11 | 1.25267 | 46.61591 | 37817 ft | 462 kts | 303° |
| 2026-04-24 23:12 | 1.28632 | 46.56109 | 37817 ft | 462 kts | 303° |
| 2026-04-24 23:12 | 1.31993 | 46.50635 | 37817 ft | 462 kts | 303° |
| 2026-04-24 23:13 | 1.35354 | 46.45158 | 37817 ft | 462 kts | 303° |
| 2026-04-24 23:13 | 1.38703 | 46.39702 | 37817 ft | 462 kts | 303° |
| 2026-04-24 23:14 | 1.42086 | 46.34191 | 37817 ft | 462 kts | 303° |
| 2026-04-24 23:14 | 1.45430 | 46.28742 | 37817 ft | 462 kts | 303° |
| 2026-04-24 23:15 | 1.48803 | 46.23246 | 37817 ft | 462 kts | 303° |
| 2026-04-24 23:15 | 1.52168 | 46.17762 | 37816 ft | 462 kts | 303° |
| 2026-04-24 23:16 | 1.55534 | 46.12276 | 37817 ft | 462 kts | 303° |
| 2026-04-24 23:16 | 1.58879 | 46.06825 | 37815 ft | 462 kts | 303° |
| 2026-04-24 23:17 | 1.62244 | 46.01339 | 37817 ft | 462 kts | 303° |
| 2026-04-24 23:17 | 1.65609 | 45.95854 | 37817 ft | 462 kts | 303° |
| 2026-04-24 23:18 | 1.68974 | 45.90368 | 37817 ft | 462 kts | 303° |
| 2026-04-24 23:18 | 1.72315 | 45.84921 | 37817 ft | 462 kts | 303° |
| 2026-04-24 23:19 | 1.75679 | 45.79435 | 37817 ft | 462 kts | 303° |
| 2026-04-24 23:19 | 1.79048 | 45.73942 | 37816 ft | 462 kts | 303° |
| 2026-04-24 23:20 | 1.82415 | 45.68450 | 37817 ft | 462 kts | 303° |
| 2026-04-24 23:20 | 1.85758 | 45.62998 | 37817 ft | 462 kts | 303° |
| 2026-04-24 23:21 | 1.89117 | 45.57520 | 37817 ft | 462 kts | 303° |
| 2026-04-24 23:21 | 1.92481 | 45.52032 | 37817 ft | 462 kts | 303° |
| 2026-04-24 23:22 | 1.95717 | 45.46753 | 37817 ft | 462 kts | 303° |
| 2026-04-24 23:22 | 1.99083 | 45.41261 | 37817 ft | 462 kts | 303° |
| 2026-04-24 23:23 | 2.02429 | 45.35801 | 37817 ft | 462 kts | 303° |
| 2026-04-24 23:23 | 2.05787 | 45.30322 | 37817 ft | 462 kts | 303° |
| 2026-04-24 23:24 | 2.09152 | 45.24830 | 37817 ft | 462 kts | 303° |
| 2026-04-24 23:24 | 2.12509 | 45.19351 | 37817 ft | 462 kts | 303° |
| 2026-04-24 23:25 | 2.15872 | 45.13861 | 37817 ft | 462 kts | 303° |
| 2026-04-24 23:25 | 2.19235 | 45.08371 | 37817 ft | 462 kts | 303° |
| 2026-04-24 23:26 | 2.22593 | 45.02889 | 37817 ft | 462 kts | 303° |
| 2026-04-24 23:26 | 2.25952 | 44.97404 | 37817 ft | 462 kts | 303° |
| 2026-04-24 23:27 | 2.29312 | 44.91917 | 37817 ft | 462 kts | 303° |
| 2026-04-24 23:27 | 2.32654 | 44.86458 | 37817 ft | 462 kts | 303° |
| 2026-04-24 23:28 | 2.36021 | 44.80959 | 37817 ft | 462 kts | 303° |
| 2026-04-24 23:28 | 2.39363 | 44.75499 | 37817 ft | 462 kts | 303° |
| 2026-04-24 23:29 | 2.42726 | 44.70005 | 37817 ft | 462 kts | 303° |
| 2026-04-24 23:29 | 2.46081 | 44.64524 | 37817 ft | 462 kts | 303° |
| 2026-04-24 23:30 | 2.49440 | 44.59034 | 37817 ft | 462 kts | 303° |
| 2026-04-24 23:30 | 2.52797 | 44.53549 | 37817 ft | 463 kts | 303° |
| 2026-04-24 23:31 | 2.56158 | 44.48054 | 37817 ft | 462 kts | 303° |
| 2026-04-24 23:31 | 2.59520 | 44.42558 | 37817 ft | 462 kts | 303° |
| 2026-04-24 23:32 | 2.62863 | 44.37093 | 37817 ft | 462 kts | 303° |
| 2026-04-24 23:32 | 2.66226 | 44.31595 | 37817 ft | 462 kts | 303° |
| 2026-04-24 23:33 | 2.69578 | 44.26111 | 37817 ft | 462 kts | 303° |
| 2026-04-24 23:33 | 2.72940 | 44.20613 | 37817 ft | 462 kts | 303° |
| 2026-04-24 23:34 | 2.75732 | 44.16047 | 37817 ft | 462 kts | 303° |
| 2026-04-24 23:34 | 2.79094 | 44.10545 | 37817 ft | 462 kts | 303° |
| 2026-04-24 23:35 | 2.82449 | 44.05056 | 37817 ft | 462 kts | 303° |
| 2026-04-24 23:35 | 2.85806 | 43.99563 | 37817 ft | 462 kts | 303° |
| 2026-04-24 23:36 | 2.89162 | 43.94071 | 37817 ft | 462 kts | 303° |
| 2026-04-24 23:36 | 2.92519 | 43.88577 | 37817 ft | 462 kts | 303° |
| 2026-04-24 23:37 | 2.95873 | 43.83086 | 37817 ft | 462 kts | 303° |
| 2026-04-24 23:37 | 3.00887 | 43.74876 | 37817 ft | 462 kts | 303° |
| 2026-04-24 23:38 | 3.04249 | 43.69371 | 37817 ft | 462 kts | 303° |
| 2026-04-24 23:38 | 3.07602 | 43.63878 | 37817 ft | 462 kts | 303° |
| 2026-04-24 23:39 | 3.10954 | 43.58387 | 37817 ft | 463 kts | 303° |
| 2026-04-24 23:39 | 3.14309 | 43.52890 | 37817 ft | 463 kts | 303° |
| 2026-04-24 23:40 | 3.17651 | 43.47414 | 37817 ft | 462 kts | 303° |
| 2026-04-24 23:40 | 3.21005 | 43.41918 | 37817 ft | 462 kts | 303° |
| 2026-04-24 23:41 | 3.24361 | 43.36416 | 37816 ft | 463 kts | 303° |
| 2026-04-24 23:41 | 3.27693 | 43.30955 | 37817 ft | 463 kts | 303° |
| 2026-04-24 23:42 | 3.31048 | 43.25454 | 37818 ft | 462 kts | 303° |
| 2026-04-24 23:42 | 3.34401 | 43.19954 | 37817 ft | 463 kts | 303° |
| 2026-04-24 23:43 | 3.37751 | 43.14459 | 37817 ft | 463 kts | 303° |
| 2026-04-24 23:43 | 3.41104 | 43.08959 | 37817 ft | 463 kts | 303° |
| 2026-04-24 23:44 | 3.44458 | 43.03457 | 37817 ft | 463 kts | 303° |
| 2026-04-24 23:44 | 3.47808 | 42.97959 | 37817 ft | 463 kts | 303° |
| 2026-04-24 23:45 | 3.51140 | 42.92492 | 37817 ft | 463 kts | 303° |
| 2026-04-24 23:45 | 3.54509 | 42.86960 | 37817 ft | 463 kts | 303° |
| 2026-04-24 23:46 | 3.57858 | 42.81463 | 37817 ft | 463 kts | 303° |
| 2026-04-24 23:46 | 3.61193 | 42.75986 | 37817 ft | 463 kts | 303° |
| 2026-04-24 23:47 | 3.64542 | 42.70486 | 37817 ft | 463 kts | 303° |
| 2026-04-24 23:47 | 3.67887 | 42.64990 | 37817 ft | 463 kts | 303° |
| 2026-04-24 23:48 | 3.71238 | 42.59485 | 37817 ft | 463 kts | 303° |
| 2026-04-24 23:48 | 3.74587 | 42.53983 | 37817 ft | 463 kts | 303° |
| 2026-04-24 23:49 | 3.77921 | 42.48503 | 37817 ft | 463 kts | 303° |
| 2026-04-24 23:49 | 3.81291 | 42.42963 | 37817 ft | 463 kts | 303° |
| 2026-04-24 23:50 | 3.84613 | 42.37502 | 37817 ft | 463 kts | 303° |
| 2026-04-24 23:50 | 3.87962 | 42.31994 | 37817 ft | 463 kts | 303° |
| 2026-04-24 23:51 | 3.91307 | 42.26492 | 37817 ft | 463 kts | 303° |
| 2026-04-24 23:51 | 3.94646 | 42.21000 | 37817 ft | 463 kts | 303° |
| 2026-04-24 23:52 | 3.97999 | 42.15484 | 37817 ft | 463 kts | 303° |
| 2026-04-24 23:52 | 4.01346 | 42.09976 | 37817 ft | 463 kts | 303° |
| 2026-04-24 23:53 | 4.04693 | 42.04466 | 37816 ft | 463 kts | 303° |
| 2026-04-24 23:53 | 4.08042 | 41.98952 | 37817 ft | 463 kts | 303° |
| 2026-04-24 23:54 | 4.11364 | 41.93483 | 37816 ft | 463 kts | 303° |
| 2026-04-24 23:54 | 4.14704 | 41.87981 | 37817 ft | 463 kts | 303° |
| 2026-04-24 23:55 | 4.18055 | 41.82462 | 37817 ft | 463 kts | 303° |
| 2026-04-24 23:55 | 4.21398 | 41.76954 | 37817 ft | 463 kts | 303° |
| 2026-04-24 23:56 | 4.24745 | 41.71438 | 37817 ft | 463 kts | 303° |
| 2026-04-24 23:56 | 4.28087 | 41.65929 | 37817 ft | 463 kts | 303° |
| 2026-04-24 23:57 | 4.31434 | 41.60413 | 37817 ft | 463 kts | 303° |
| 2026-04-24 23:57 | 4.34774 | 41.54904 | 37817 ft | 463 kts | 303° |
| 2026-04-24 23:58 | 4.38096 | 41.49426 | 37817 ft | 463 kts | 303° |
| 2026-04-24 23:58 | 4.41438 | 41.43912 | 37817 ft | 463 kts | 303° |
| 2026-04-24 23:59 | 4.44783 | 41.38392 | 37817 ft | 463 kts | 303° |
| 2026-04-24 23:59 | 4.48121 | 41.32885 | 37816 ft | 463 kts | 303° |
| 2026-04-25 00:00 | 4.51471 | 41.27355 | 37817 ft | 463 kts | 303° |
| 2026-04-25 00:00 | 4.54784 | 41.21884 | 37817 ft | 463 kts | 303° |
| 2026-04-25 00:01 | 4.58130 | 41.16359 | 37817 ft | 463 kts | 303° |
| 2026-04-25 00:01 | 4.61475 | 41.10834 | 37817 ft | 463 kts | 303° |
| 2026-04-25 00:02 | 4.64810 | 41.05323 | 37817 ft | 463 kts | 303° |
| 2026-04-25 00:02 | 4.68151 | 40.99803 | 37817 ft | 463 kts | 303° |
| 2026-04-25 00:03 | 4.71469 | 40.94318 | 37817 ft | 463 kts | 303° |
| 2026-04-25 00:03 | 4.74805 | 40.88803 | 37817 ft | 463 kts | 303° |
| 2026-04-25 00:04 | 4.78140 | 40.83288 | 37817 ft | 463 kts | 303° |
| 2026-04-25 00:04 | 4.81474 | 40.77774 | 37817 ft | 463 kts | 303° |
| 2026-04-25 00:05 | 4.84817 | 40.72242 | 37817 ft | 463 kts | 303° |
| 2026-04-25 00:05 | 4.88150 | 40.66728 | 37817 ft | 463 kts | 303° |
| 2026-04-25 00:06 | 4.91489 | 40.61201 | 37817 ft | 463 kts | 303° |
| 2026-04-25 00:06 | 4.94806 | 40.55710 | 37817 ft | 463 kts | 303° |
| 2026-04-25 00:07 | 4.98135 | 40.50196 | 37817 ft | 463 kts | 303° |
| 2026-04-25 00:07 | 5.01471 | 40.44670 | 37817 ft | 463 kts | 303° |
| 2026-04-25 00:08 | 5.04807 | 40.39143 | 37817 ft | 463 kts | 303° |
| 2026-04-25 00:08 | 5.08141 | 40.33619 | 37817 ft | 463 kts | 303° |
| 2026-04-25 00:09 | 5.11479 | 40.28086 | 37816 ft | 463 kts | 303° |
| 2026-04-25 00:09 | 5.14792 | 40.22592 | 37817 ft | 463 kts | 303° |
| 2026-04-25 00:10 | 5.18128 | 40.17061 | 37817 ft | 463 kts | 303° |
| 2026-04-25 00:10 | 5.21457 | 40.11538 | 37817 ft | 463 kts | 303° |
| 2026-04-25 00:11 | 5.24231 | 40.06936 | 37816 ft | 463 kts | 303° |
| 2026-04-25 00:11 | 5.28100 | 40.00513 | 37817 ft | 463 kts | 303° |
| 2026-04-25 00:12 | 5.31434 | 39.94980 | 37817 ft | 463 kts | 303° |
| 2026-04-25 00:12 | 5.34761 | 39.89455 | 37817 ft | 463 kts | 303° |
| 2026-04-25 00:13 | 5.38092 | 39.83922 | 37817 ft | 463 kts | 303° |
| 2026-04-25 00:13 | 5.41417 | 39.78397 | 37817 ft | 463 kts | 303° |
| 2026-04-25 00:14 | 5.44743 | 39.72869 | 37817 ft | 463 kts | 303° |
| 2026-04-25 00:14 | 5.48071 | 39.67337 | 37817 ft | 463 kts | 303° |
| 2026-04-25 00:15 | 5.51380 | 39.61839 | 37817 ft | 463 kts | 303° |
| 2026-04-25 00:15 | 5.54711 | 39.56299 | 37817 ft | 463 kts | 303° |
| 2026-04-25 00:16 | 5.58035 | 39.50767 | 37817 ft | 463 kts | 303° |
| 2026-04-25 00:16 | 5.61353 | 39.45242 | 37817 ft | 463 kts | 303° |
| 2026-04-25 00:17 | 5.65085 | 39.40060 | 37816 ft | 459 kts | 317° |
| 2026-04-25 00:17 | 5.67577 | 39.38070 | 37818 ft | 457 kts | 329° |
| 2026-04-25 00:17 | 5.70368 | 39.36539 | 37818 ft | 457 kts | 335° |
| 2026-04-25 00:18 | 5.75211 | 39.34330 | 37817 ft | 456 kts | 337° |
| 2026-04-25 00:18 | 5.81974 | 39.31350 | 37817 ft | 456 kts | 337° |
| 2026-04-25 00:19 | 5.86807 | 39.29216 | 37817 ft | 456 kts | 337° |
| 2026-04-25 00:19 | 5.92628 | 39.26643 | 37817 ft | 456 kts | 337° |
| 2026-04-25 00:20 | 5.99394 | 39.23652 | 37817 ft | 456 kts | 337° |
| 2026-04-25 00:20 | 6.04250 | 39.21505 | 37819 ft | 456 kts | 337° |
| 2026-04-25 00:21 | 6.10075 | 39.18927 | 37817 ft | 456 kts | 337° |
| 2026-04-25 00:21 | 6.15850 | 39.16371 | 37817 ft | 456 kts | 337° |
| 2026-04-25 00:22 | 6.21669 | 39.13794 | 37817 ft | 456 kts | 337° |
| 2026-04-25 00:22 | 6.27457 | 39.11230 | 37817 ft | 456 kts | 337° |
| 2026-04-25 00:23 | 6.33267 | 39.08655 | 37816 ft | 456 kts | 337° |
| 2026-04-25 00:23 | 6.39086 | 39.06076 | 37817 ft | 456 kts | 337° |
| 2026-04-25 00:24 | 6.44894 | 39.03501 | 37817 ft | 456 kts | 337° |
| 2026-04-25 00:24 | 6.50715 | 39.00920 | 37817 ft | 456 kts | 337° |
| 2026-04-25 00:25 | 6.56531 | 38.98340 | 37817 ft | 456 kts | 337° |
| 2026-04-25 00:25 | 6.62307 | 38.95777 | 37817 ft | 456 kts | 337° |
| 2026-04-25 00:26 | 6.68160 | 38.93173 | 37827 ft | 460 kts | 337° |
| 2026-04-25 00:26 | 6.74047 | 38.90562 | 37904 ft | 464 kts | 338° |
| 2026-04-25 00:27 | 6.80004 | 38.87919 | 37947 ft | 470 kts | 337° |
| 2026-04-25 00:27 | 6.85956 | 38.85277 | 37975 ft | 472 kts | 337° |
| 2026-04-25 00:28 | 6.91998 | 38.82592 | 37990 ft | 476 kts | 338° |
| 2026-04-25 00:28 | 6.98089 | 38.79885 | 37999 ft | 479 kts | 338° |
| 2026-04-25 00:29 | 7.04199 | 38.77175 | 37993 ft | 479 kts | 336° |
| 2026-04-25 00:29 | 7.10264 | 38.74497 | 38009 ft | 479 kts | 335° |
| 2026-04-25 00:30 | 7.16370 | 38.71770 | 38006 ft | 480 kts | 334° |
| 2026-04-25 00:30 | 7.22499 | 38.69028 | 38016 ft | 480 kts | 335° |
| 2026-04-25 00:31 | 7.28534 | 38.66333 | 38019 ft | 476 kts | 336° |
| 2026-04-25 00:31 | 7.34633 | 38.63623 | 38021 ft | 475 kts | 336° |
| 2026-04-25 00:32 | 7.40688 | 38.60930 | 38023 ft | 475 kts | 336° |
| 2026-04-25 00:32 | 7.46680 | 38.58261 | 38024 ft | 474 kts | 336° |
| 2026-04-25 00:33 | 7.52725 | 38.55568 | 38022 ft | 474 kts | 336° |
| 2026-04-25 00:33 | 7.58757 | 38.52880 | 38023 ft | 474 kts | 336° |
| 2026-04-25 00:34 | 7.64787 | 38.50191 | 38023 ft | 473 kts | 336° |
| 2026-04-25 00:34 | 7.70811 | 38.47504 | 38023 ft | 473 kts | 336° |
| 2026-04-25 00:35 | 7.76841 | 38.44814 | 38023 ft | 473 kts | 336° |
| 2026-04-25 00:35 | 7.82822 | 38.42144 | 38023 ft | 473 kts | 336° |
| 2026-04-25 00:36 | 7.88874 | 38.39444 | 38023 ft | 473 kts | 336° |
| 2026-04-25 00:36 | 7.94850 | 38.36776 | 38023 ft | 472 kts | 336° |
| 2026-04-25 00:37 | 8.00870 | 38.34085 | 38023 ft | 472 kts | 336° |
| 2026-04-25 00:37 | 8.06878 | 38.31399 | 38023 ft | 472 kts | 336° |
| 2026-04-25 00:38 | 8.09888 | 38.30052 | 37679 ft | 473 kts | 336° |
| 2026-04-25 00:38 | 8.12894 | 38.28709 | 36837 ft | 473 kts | 336° |
| 2026-04-25 00:38 | 8.15886 | 38.27331 | 35967 ft | 474 kts | 334° |
| 2026-04-25 00:38 | 8.18810 | 38.25810 | 35373 ft | 469 kts | 329° |
| 2026-04-25 00:39 | 8.21312 | 38.23775 | 34995 ft | 458 kts | 311° |
| 2026-04-25 00:39 | 8.23023 | 38.21085 | 34149 ft | 460 kts | 293° |
| 2026-04-25 00:39 | 8.23769 | 38.17927 | 33141 ft | 467 kts | 274° |
| 2026-04-25 00:39 | 8.23764 | 38.14638 | 32224 ft | 470 kts | 275° |
| 2026-04-25 00:40 | 8.24361 | 38.11420 | 31542 ft | 465 kts | 287° |
| 2026-04-25 00:40 | 8.25651 | 38.08472 | 30921 ft | 458 kts | 302° |
| 2026-04-25 00:40 | 8.27607 | 38.06016 | 30337 ft | 452 kts | 317° |
| 2026-04-25 00:40 | 8.30157 | 38.04145 | 29734 ft | 446 kts | 333° |
| 2026-04-25 00:41 | 8.32994 | 38.03038 | 29130 ft | 441 kts | 345° |
| 2026-04-25 00:41 | 8.35862 | 38.01976 | 28504 ft | 438 kts | 333° |
| 2026-04-25 00:41 | 8.38433 | 38.00331 | 27888 ft | 435 kts | 328° |
| 2026-04-25 00:41 | 8.41019 | 37.98756 | 27247 ft | 433 kts | 330° |
| 2026-04-25 00:42 | 8.43725 | 37.97448 | 26592 ft | 430 kts | 342° |
| 2026-04-25 00:42 | 8.46640 | 37.96913 | 25979 ft | 426 kts | 359° |
| 2026-04-25 00:42 | 8.49551 | 37.97222 | 25484 ft | 417 kts | 15° |
| 2026-04-25 00:42 | 8.52202 | 37.98318 | 24937 ft | 410 kts | 31° |
| 2026-04-25 00:43 | 8.54425 | 38.00106 | 24206 ft | 408 kts | 48° |
| 2026-04-25 00:43 | 8.56016 | 38.02453 | 23604 ft | 403 kts | 65° |
| 2026-04-25 00:43 | 8.56844 | 38.05124 | 23072 ft | 396 kts | 80° |
| 2026-04-25 00:43 | 8.57331 | 38.07848 | 22545 ft | 391 kts | 79° |
| 2026-04-25 00:44 | 8.57886 | 38.10519 | 22003 ft | 387 kts | 77° |
| 2026-04-25 00:44 | 8.58582 | 38.13138 | 21436 ft | 384 kts | 74° |
| 2026-04-25 00:44 | 8.59345 | 38.15725 | 20854 ft | 381 kts | 73° |
| 2026-04-25 00:44 | 8.60092 | 38.18285 | 20242 ft | 380 kts | 74° |
| 2026-04-25 00:45 | 8.60808 | 38.20795 | 19549 ft | 373 kts | 74° |
| 2026-04-25 00:45 | 8.61512 | 38.23292 | 18847 ft | 366 kts | 74° |
| 2026-04-25 00:45 | 8.62197 | 38.25741 | 18175 ft | 359 kts | 74° |
| 2026-04-25 00:45 | 8.62871 | 38.28148 | 17571 ft | 351 kts | 75° |
| 2026-04-25 00:46 | 8.63525 | 38.30494 | 16971 ft | 344 kts | 75° |
| 2026-04-25 00:46 | 8.64167 | 38.32797 | 16369 ft | 337 kts | 75° |
| 2026-04-25 00:46 | 8.65414 | 38.37279 | 15165 ft | 325 kts | 75° |
| 2026-04-25 00:47 | 8.66019 | 38.39462 | 14584 ft | 319 kts | 75° |
| 2026-04-25 00:47 | 8.66607 | 38.41572 | 14358 ft | 302 kts | 75° |
| 2026-04-25 00:47 | 8.67155 | 38.43545 | 14307 ft | 282 kts | 75° |
| 2026-04-25 00:47 | 8.67680 | 38.45438 | 14222 ft | 280 kts | 75° |
| 2026-04-25 00:48 | 8.68210 | 38.47339 | 14134 ft | 282 kts | 74° |
| 2026-04-25 00:48 | 8.68930 | 38.49156 | 14003 ft | 285 kts | 57° |
| 2026-04-25 00:48 | 8.70402 | 38.50481 | 13877 ft | 286 kts | 30° |
| 2026-04-25 00:48 | 8.72214 | 38.51322 | 13691 ft | 288 kts | 24° |
| 2026-04-25 00:49 | 8.74061 | 38.52102 | 13439 ft | 286 kts | 24° |
| 2026-04-25 00:49 | 8.75888 | 38.52867 | 13187 ft | 282 kts | 24° |
| 2026-04-25 00:49 | 8.77690 | 38.53623 | 12936 ft | 280 kts | 24° |
| 2026-04-25 00:49 | 8.79474 | 38.54369 | 12683 ft | 277 kts | 23° |
| 2026-04-25 00:50 | 8.81250 | 38.55116 | 12434 ft | 275 kts | 23° |
| 2026-04-25 00:50 | 8.83030 | 38.55869 | 12180 ft | 277 kts | 24° |
| 2026-04-25 00:50 | 8.84788 | 38.56616 | 11935 ft | 272 kts | 24° |
| 2026-04-25 00:50 | 8.86503 | 38.57348 | 11611 ft | 265 kts | 24° |
| 2026-04-25 00:51 | 8.88014 | 38.58355 | 11270 ft | 255 kts | 45° |
| 2026-04-25 00:51 | 8.89144 | 38.59702 | 10950 ft | 250 kts | 52° |
| 2026-04-25 00:51 | 8.90203 | 38.61092 | 10660 ft | 247 kts | 52° |
| 2026-04-25 00:51 | 8.91239 | 38.62464 | 10366 ft | 245 kts | 52° |
| 2026-04-25 00:52 | 8.92272 | 38.63827 | 10207 ft | 239 kts | 52° |
| 2026-04-25 00:52 | 8.93269 | 38.65143 | 10063 ft | 235 kts | 52° |
| 2026-04-25 00:52 | 8.94239 | 38.66409 | 9774 ft | 223 kts | 52° |
| 2026-04-25 00:52 | 8.95004 | 38.67692 | 9529 ft | 208 kts | 70° |
| 2026-04-25 00:53 | 8.95310 | 38.69058 | 9340 ft | 189 kts | 79° |
| 2026-04-25 00:53 | 8.95532 | 38.70307 | 9145 ft | 174 kts | 79° |
| 2026-04-25 00:53 | 8.95725 | 38.71512 | 8738 ft | 174 kts | 82° |
| 2026-04-25 00:53 | 8.95887 | 38.72733 | 8310 ft | 171 kts | 81° |
| 2026-04-25 00:54 | 8.96116 | 38.73857 | 8034 ft | 158 kts | 76° |
| 2026-04-25 00:54 | 8.96410 | 38.74868 | 7862 ft | 142 kts | 72° |
| 2026-04-25 00:54 | 8.96666 | 38.75669 | 7719 ft | 134 kts | 72° |
| 2026-04-25 00:54 | 8.96914 | 38.76562 | 7519 ft | 129 kts | 73° |
| 2026-04-25 00:55 | 8.97171 | 38.77436 | 7443 ft | 132 kts | 74° |
| 2026-04-25 00:55 | 8.97431 | 38.78339 | 7345 ft | 134 kts | 73° |
| 2026-04-25 00:55 | 8.97664 | 38.79138 | 7327 ft | 92 kts | 74° |
| 2026-04-25 00:55 | 8.97777 | 38.79539 | 7327 ft | 35 kts | 71° |
| 2026-04-25 00:56 | 8.97827 | 38.79701 | 7327 ft | 21 kts | 73° |
| 2026-04-25 00:56 | 8.97858 | 38.79807 | 7327 ft | 11 kts | 72° |
| 2026-04-25 00:56 | 8.97899 | 38.79818 | 7327 ft | 6 kts | 344° |
| 2026-04-25 00:56 | 8.97947 | 38.79805 | 7327 ft | 9 kts | 345° |
| 2026-04-25 00:57 | 8.98025 | 38.79783 | 7327 ft | 14 kts | 343° |
| 2026-04-25 00:57 | 8.98132 | 38.79757 | 7327 ft | 17 kts | 9° |
| 2026-04-25 00:57 | 8.98216 | 38.79840 | 7327 ft | 18 kts | 73° |
| 2026-04-25 00:57 | 8.98251 | 38.79960 | 7327 ft | 15 kts | 74° |
| 2026-04-25 00:58 | 8.98265 | 38.79992 | 7327 ft | 1 kts | 47° |
| 2026-04-25 00:58 | 8.98279 | 38.80015 | 7327 ft | 9 kts | 63° |
| 2026-04-25 00:58 | 8.98325 | 38.80028 | 7327 ft | 7 kts | 343° |
| 2026-04-25 00:58 | 8.98336 | 38.80025 | 7327 ft | 0 kts | 343° |